createdAt,value
2023-05-01T00:00:18.550Z,29.360
2023-05-01T00:05:17.425Z,29.358
2023-05-01T00:10:17.964Z,29.358
2023-05-01T00:15:17.447Z,29.355
2023-05-01T00:20:17.615Z,29.349
2023-05-01T00:25:18.243Z,29.347
2023-05-01T00:30:17.616Z,29.343
2023-05-01T00:35:17.854Z,29.340
2023-05-01T00:40:18.115Z,29.335
2023-05-01T00:45:17.596Z,29.330
2023-05-01T00:50:18.006Z,29.330
2023-05-01T00:55:18.260Z,29.323
2023-05-01T01:00:18.065Z,29.322
2023-05-01T01:05:17.881Z,29.312
2023-05-01T01:10:18.351Z,29.306
2023-05-01T01:15:18.013Z,29.303
2023-05-01T01:20:17.832Z,29.299
2023-05-01T01:25:17.433Z,29.294
2023-05-01T01:30:18.146Z,29.286
2023-05-01T01:35:17.683Z,29.280
2023-05-01T01:40:18.489Z,29.278
2023-05-01T01:45:19.700Z,29.275
2023-05-01T01:50:17.643Z,29.268
2023-05-01T01:55:17.645Z,29.268
2023-05-01T02:00:18.235Z,29.260
2023-05-01T02:05:17.552Z,29.260
2023-05-01T02:10:18.592Z,29.255
2023-05-01T02:15:18.048Z,29.251
2023-05-01T02:20:18.502Z,29.247
2023-05-01T02:25:17.837Z,29.242
2023-05-01T02:30:18.017Z,29.238
2023-05-01T02:35:17.657Z,29.233
2023-05-01T02:40:18.211Z,29.228
2023-05-01T02:45:17.703Z,29.223
2023-05-01T02:50:17.706Z,29.214
2023-05-01T02:55:18.523Z,29.210
2023-05-01T03:00:17.754Z,29.208
2023-05-01T03:05:17.828Z,29.203
2023-05-01T03:10:18.435Z,29.202
2023-05-01T03:15:17.808Z,29.198
2023-05-01T03:20:17.845Z,29.192
2023-05-01T03:25:18.146Z,29.187
2023-05-01T03:30:18.493Z,29.181
2023-05-01T03:35:17.777Z,29.174
2023-05-01T03:40:18.120Z,29.165
2023-05-01T03:45:19.127Z,29.162
2023-05-01T03:50:17.992Z,29.157
2023-05-01T03:55:17.971Z,29.150
2023-05-01T04:00:17.434Z,29.146
2023-05-01T04:05:17.370Z,29.134
2023-05-01T04:10:17.529Z,29.129
2023-05-01T04:15:17.251Z,29.122
2023-05-01T04:20:17.533Z,29.114
2023-05-01T04:25:17.444Z,29.108
2023-05-01T04:30:17.372Z,29.094
2023-05-01T04:35:17.438Z,29.090
2023-05-01T04:40:17.902Z,29.079
2023-05-01T04:45:17.265Z,29.077
2023-05-01T04:50:17.375Z,29.064
2023-05-01T04:55:17.334Z,29.063
2023-05-01T05:00:17.381Z,29.053
2023-05-01T05:05:19.121Z,29.050
2023-05-01T05:10:17.520Z,29.042
2023-05-01T05:15:17.436Z,29.039
2023-05-01T05:20:17.388Z,29.033
2023-05-01T05:25:17.597Z,29.032
2023-05-01T05:30:17.705Z,29.031
2023-05-01T05:35:17.276Z,29.022
2023-05-01T05:40:17.483Z,29.024
2023-05-01T05:45:19.343Z,29.027
2023-05-01T05:50:17.498Z,29.054
2023-05-01T05:55:17.534Z,29.039
2023-05-01T06:00:17.518Z,29.027
2023-05-01T06:05:17.468Z,29.022
2023-05-01T06:10:17.824Z,29.018
2023-05-01T06:15:17.533Z,29.015
2023-05-01T06:20:17.829Z,29.004
2023-05-01T06:25:17.542Z,29.002
2023-05-01T06:30:17.604Z,28.999
2023-05-01T06:35:17.789Z,29.000
2023-05-01T06:40:18.342Z,28.991
2023-05-01T06:45:17.659Z,28.987
2023-05-01T06:50:17.663Z,28.987
2023-05-01T06:55:17.795Z,28.984
2023-05-01T07:00:17.578Z,28.980
2023-05-01T07:05:17.701Z,28.980
2023-05-01T07:10:17.886Z,28.978
2023-05-01T07:15:17.475Z,28.975
2023-05-01T07:20:17.736Z,28.979
2023-05-01T07:25:17.827Z,28.974
2023-05-01T07:30:18.152Z,28.971
2023-05-01T07:35:18.115Z,28.968
2023-05-01T07:40:21.292Z,28.966
2023-05-01T07:45:18.855Z,28.964
2023-05-01T07:50:17.546Z,28.961
2023-05-01T07:55:17.569Z,28.961
2023-05-01T08:00:17.643Z,28.954
2023-05-01T08:05:18.105Z,28.955
2023-05-01T08:10:17.724Z,28.954
2023-05-01T08:15:17.648Z,28.951
2023-05-01T08:20:18.090Z,28.949
2023-05-01T08:25:17.766Z,28.953
2023-05-01T08:30:17.734Z,28.951
2023-05-01T08:35:18.224Z,28.949
2023-05-01T08:40:17.731Z,28.946
2023-05-01T08:45:17.853Z,28.944
2023-05-01T08:50:18.244Z,28.947
2023-05-01T08:55:18.569Z,28.950
2023-05-01T09:00:17.694Z,28.944
2023-05-01T09:05:17.811Z,28.941
2023-05-01T09:10:18.450Z,28.943
2023-05-01T09:15:18.557Z,28.942
2023-05-01T09:20:17.739Z,28.942
2023-05-01T09:25:17.682Z,28.938
2023-05-01T09:30:17.728Z,28.938
2023-05-01T09:35:17.804Z,28.935
2023-05-01T09:40:18.828Z,28.934
2023-05-01T09:45:18.934Z,28.935
2023-05-01T09:50:17.833Z,28.935
2023-05-01T09:55:18.071Z,28.928
2023-05-01T10:00:18.181Z,28.929
2023-05-01T10:05:17.592Z,28.927
2023-05-01T10:10:18.724Z,28.925
2023-05-01T10:15:25.382Z,28.927
2023-05-01T10:20:17.847Z,28.927
2023-05-01T10:25:19.914Z,28.925
2023-05-01T10:30:18.040Z,28.925
2023-05-01T10:35:18.046Z,28.928
2023-05-01T10:40:18.008Z,28.931
2023-05-01T10:45:17.828Z,28.935
2023-05-01T10:50:18.356Z,28.937
2023-05-01T10:55:18.173Z,28.936
2023-05-01T11:00:17.846Z,28.934
2023-05-01T11:05:23.705Z,28.935
2023-05-01T11:10:18.549Z,28.937
2023-05-01T11:15:17.673Z,28.941
2023-05-01T11:20:17.830Z,28.942
2023-05-01T11:25:18.705Z,28.944
2023-05-01T11:30:18.018Z,28.944
2023-05-01T11:35:17.760Z,28.944
2023-05-01T11:40:18.085Z,28.943
2023-05-01T11:45:19.009Z,28.943
2023-05-01T11:50:17.769Z,28.941
2023-05-01T11:55:18.122Z,28.944
2023-05-01T12:00:18.435Z,28.951
2023-05-01T12:05:17.834Z,28.957
2023-05-01T12:10:18.116Z,28.961
2023-05-01T12:15:17.663Z,28.966
2023-05-01T12:20:18.383Z,28.964
2023-05-01T12:25:17.994Z,28.963
2023-05-01T12:30:18.221Z,28.963
2023-05-01T12:35:18.229Z,28.966
2023-05-01T12:40:19.105Z,28.968
2023-05-01T12:45:18.583Z,28.968
2023-05-01T12:50:18.043Z,28.973
2023-05-01T12:55:17.967Z,28.972
2023-05-01T13:00:17.826Z,28.975
2023-05-01T13:05:17.905Z,28.973
2023-05-01T13:10:18.526Z,28.978
2023-05-01T13:15:17.872Z,28.980
2023-05-01T13:20:18.229Z,28.985
2023-05-01T13:25:18.032Z,28.984
2023-05-01T13:30:18.431Z,28.986
2023-05-01T13:35:17.852Z,28.991
2023-05-01T13:40:18.358Z,28.998
2023-05-01T13:45:19.748Z,29.003
2023-05-01T13:50:18.366Z,29.009
2023-05-01T13:55:18.683Z,29.010
2023-05-01T14:00:18.356Z,29.016
2023-05-01T14:05:17.830Z,29.022
2023-05-01T14:10:18.451Z,29.027
2023-05-01T14:15:18.118Z,29.032
2023-05-01T14:20:18.338Z,29.041
2023-05-01T14:25:18.168Z,29.052
2023-05-01T14:30:18.316Z,29.056
2023-05-01T14:35:18.235Z,29.065
2023-05-01T14:40:18.690Z,29.068
2023-05-01T14:45:18.163Z,29.073
2023-05-01T14:50:18.661Z,29.075
2023-05-01T14:55:18.541Z,29.081
2023-05-01T15:00:18.028Z,29.088
2023-05-01T15:05:18.344Z,29.091
2023-05-01T15:10:19.201Z,29.096
2023-05-01T15:15:18.080Z,29.099
2023-05-01T15:20:18.364Z,29.106
2023-05-01T15:25:18.720Z,29.108
2023-05-01T15:30:18.826Z,29.117
2023-05-01T15:35:18.414Z,29.120
2023-05-01T15:45:19.213Z,29.126
2023-05-01T15:50:18.406Z,29.131
2023-05-01T15:55:18.151Z,29.135
2023-05-01T16:00:18.462Z,29.140
2023-05-01T16:05:19.194Z,29.143
2023-05-01T16:10:18.644Z,29.144
2023-05-01T16:15:18.459Z,29.151
2023-05-01T16:20:18.552Z,29.154
2023-05-01T16:25:19.290Z,29.159
2023-05-01T16:30:18.480Z,29.163
2023-05-01T16:35:18.580Z,29.164
2023-05-01T16:40:18.898Z,29.167
2023-05-01T16:45:18.784Z,29.170
2023-05-01T16:50:18.642Z,29.173
2023-05-01T16:55:17.402Z,29.176
2023-05-01T17:00:17.322Z,29.179
2023-05-01T17:05:17.308Z,29.181
2023-05-01T17:10:17.463Z,29.184
2023-05-01T17:15:17.513Z,29.185
2023-05-01T17:20:17.460Z,29.187
2023-05-01T17:25:17.367Z,29.190
2023-05-01T17:30:17.206Z,29.193
2023-05-01T17:35:17.358Z,29.196
2023-05-01T17:40:17.580Z,29.200
2023-05-01T17:45:19.096Z,29.204
2023-05-01T17:50:17.449Z,29.205
2023-05-01T17:55:18.505Z,29.207
2023-05-01T18:00:17.479Z,29.209
2023-05-01T18:05:17.993Z,29.210
2023-05-01T18:10:17.485Z,29.214
2023-05-01T18:15:22.067Z,29.217
2023-05-01T18:20:17.505Z,29.220
2023-05-01T18:25:17.331Z,29.222
2023-05-01T18:30:17.216Z,29.221
2023-05-01T18:35:17.199Z,29.221
2023-05-01T18:40:17.375Z,29.221
2023-05-01T18:45:17.144Z,29.223
2023-05-01T18:50:17.284Z,29.221
2023-05-01T18:55:18.891Z,29.223
2023-05-01T19:00:17.321Z,29.224
2023-05-01T19:05:17.483Z,29.224
2023-05-01T19:10:17.588Z,29.224
2023-05-01T19:15:17.615Z,29.224
2023-05-01T19:20:17.361Z,29.224
2023-05-01T19:25:17.339Z,29.223
2023-05-01T19:30:17.666Z,29.222
2023-05-01T19:35:17.249Z,29.224
2023-05-01T19:40:17.514Z,29.227
2023-05-01T19:45:18.727Z,29.225
2023-05-01T19:50:17.435Z,29.227
2023-05-01T19:55:17.460Z,29.230
2023-05-01T20:00:17.455Z,29.230
2023-05-01T20:05:18.338Z,29.231
2023-05-01T20:10:18.205Z,29.230
2023-05-01T20:15:17.317Z,29.229
2023-05-01T20:20:18.586Z,29.230
2023-05-01T20:25:18.683Z,29.230
2023-05-01T20:30:18.100Z,29.230
2023-05-01T20:35:17.900Z,29.233
2023-05-01T20:40:18.579Z,29.232
2023-05-01T20:45:17.828Z,29.233
2023-05-01T20:50:17.883Z,29.233
2023-05-01T20:55:18.218Z,29.233
2023-05-01T21:00:17.878Z,29.237
2023-05-01T21:05:18.242Z,29.238
2023-05-01T21:10:18.121Z,29.241
2023-05-01T21:15:18.657Z,29.245
2023-05-01T21:20:18.270Z,29.245
2023-05-01T21:25:18.529Z,29.245
2023-05-01T21:30:18.298Z,29.245
2023-05-01T21:35:20.049Z,29.246
2023-05-01T21:40:18.271Z,29.248
2023-05-01T21:45:19.704Z,29.250
2023-05-01T21:50:18.233Z,29.252
2023-05-01T21:55:18.436Z,29.253
2023-05-01T22:00:18.746Z,29.251
2023-05-01T22:05:18.368Z,29.254
2023-05-01T22:10:18.327Z,29.254
2023-05-01T22:15:18.249Z,29.258
2023-05-01T22:20:18.625Z,29.256
2023-05-01T22:25:18.780Z,29.258
2023-05-01T22:30:18.105Z,29.259
2023-05-01T22:35:18.414Z,29.262
2023-05-01T22:40:19.001Z,29.264
2023-05-01T22:45:18.683Z,29.266
2023-05-01T22:50:18.252Z,29.269
2023-05-01T22:55:18.740Z,29.270
2023-05-01T23:00:18.426Z,29.274
2023-05-01T23:05:18.541Z,29.277
2023-05-01T23:10:18.492Z,29.277
2023-05-01T23:15:18.492Z,29.280
2023-05-01T23:20:18.584Z,29.281
2023-05-01T23:25:18.445Z,29.282
2023-05-01T23:30:18.876Z,29.285
2023-05-01T23:35:18.684Z,29.288
2023-05-01T23:40:18.589Z,29.291
2023-05-01T23:45:19.424Z,29.293
2023-05-01T23:50:18.581Z,29.295
2023-05-01T23:55:19.040Z,29.297
